Sonderborg — V2GQ3 — position and weather

sailwx.info

Track history (hours):
 
Tides and Currents Weather Stations Pressure Air Temp Water Temp Dewpoint Dewpoint Depression Visibility Wind Speed Wind Dir Waves Ship Positions

Sonderborg

Last reported at 2018-Feb-22 07:52 UTC. Time now 2018-Feb-23 22:45 UTC.
Position N 38°20' E 012°32'.

Length 148 m; draft 8.4 m.

Type: Cargo ship. MMSI: 304044000.

Date/timePositionNaut miles runAvg speedWind from/ knotsBaromVisibWave heightAir tempDewpointWater temp
2018-Feb-22 07:52N 38°20' E 012°32'1215.7
2018-Feb-22 07:07N 38°23' E 012°47'216.0
2018-Feb-22 07:01N 38°23' E 012°49'815.8
2018-Feb-22 06:31N 38°25' E 012°59'816.5
2018-Feb-22 06:00N 38°27' E 013°09'816.4
2018-Feb-22 05:30N 38°29' E 013°20'816.1
2018-Feb-22 05:01N 38°29' E 013°30'815.7
2018-Feb-22 04:31N 38°28' E 013°40'816.0
2018-Feb-22 04:00N 38°27' E 013°50'816.3
2018-Feb-22 03:30N 38°26' E 014°00'816.2
2018-Feb-22 03:00N 38°24' E 014°10'2316.2
2018-Feb-22 01:37N 38°22' E 014°39'316.2
2018-Feb-22 01:26N 38°21' E 014°43'716.3
2018-Feb-22 01:00N 38°20' E 014°51'815.9
2018-Feb-22 00:31N 38°20' E 015°02'816.0
2018-Feb-22 00:00N 38°23' E 015°11'815.6
2018-Feb-21 23:31N 38°24' E 015°21'816.0
2018-Feb-21 23:00N 38°26' E 015°31'815.9
2018-Feb-21 22:30N 38°27' E 015°41'816.0
2018-Feb-21 22:01N 38°27' E 015°51'3 4.6
2018-Feb-21 21:28N 38°27' E 015°54'0 0.0
2018-Feb-21 12:58N 38°27' E 015°54'0 0.0
2018-Feb-21 11:04N 38°27' E 015°54'0 0.0
2018-Feb-21 07:10N 38°27' E 015°54'0 0.0
2018-Feb-21 06:46N 38°27' E 015°54'0 0.0
2018-Feb-21 06:22N 38°27' E 015°54'0 0.0
2018-Feb-21 05:04N 38°27' E 015°54'0 0.0
2018-Feb-21 04:52N 38°27' E 015°54'0 0.0
2018-Feb-21 04:22N 38°27' E 015°54'0 0.0
2018-Feb-21 03:04N 38°27' E 015°54'0 0.1
2018-Feb-21 02:58N 38°27' E 015°54'0 0.0
2018-Feb-21 02:28N 38°27' E 015°54'0 0.0
2018-Feb-21 01:40N 38°27' E 015°54'0 0.0
2018-Feb-21 01:28N 38°27' E 015°54'0 0.0
2018-Feb-21 00:16N 38°27' E 015°54'0 0.0
2018-Feb-20 21:52N 38°27' E 015°54'0 0.0
2018-Feb-20 21:22N 38°27' E 015°54'0 0.0
2018-Feb-20 20:58N 38°27' E 015°54'0 0.0
2018-Feb-20 20:28N 38°27' E 015°54'0 0.0
2018-Feb-20 19:58N 38°27' E 015°54'0 0.0
2018-Feb-20 08:52N 38°27' E 015°54'6 4.9
2018-Feb-20 07:45N 38°28' E 015°47'2 5.1
2018-Feb-20 07:21N 38°30' E 015°46'3 9.2
2018-Feb-20 06:59N 38°33' E 015°44'2 1.4
2018-Feb-20 05:47N 38°34' E 015°43'0 0.2
2018-Feb-20 05:30N 38°34' E 015°43'0 0.2
2018-Feb-20 04:59N 38°34' E 015°43'0 0.2
2018-Feb-20 03:55N 38°34' E 015°43'0 0.5
2018-Feb-20 03:26N 38°34' E 015°42'1 0.4
2018-Feb-20 00:27N 38°35' E 015°41'0 0.5
2018-Feb-20 00:00N 38°35' E 015°41'1 0.5
2018-Feb-19 23:00N 38°36' E 015°40'0 0.5
2018-Feb-19 22:05N 38°36' E 015°40'0 0.4
2018-Feb-19 21:46N 38°36' E 015°39'0 0.5
2018-Feb-19 21:29N 38°36' E 015°39'0 0.6
2018-Feb-19 20:52N 38°35' E 015°39'0 0.7
2018-Feb-19 20:21N 38°35' E 015°39'0 0.7
2018-Feb-19 20:00N 38°35' E 015°39'0 0.5
2018-Feb-19 19:29N 38°35' E 015°38'0 0.4
2018-Feb-19 18:58N 38°34' E 015°38'0 0.3
2018-Feb-19 18:29N 38°34' E 015°38'0 0.5
2018-Feb-19 18:00N 38°34' E 015°38'0 0.4
2018-Feb-19 17:27N 38°34' E 015°38'0 0.4
2018-Feb-19 17:00N 38°34' E 015°38'0 0.3
2018-Feb-19 16:30N 38°34' E 015°38'0 0.3
2018-Feb-19 16:00N 38°33' E 015°38'0 0.4
2018-Feb-19 15:30N 38°33' E 015°38'0 0.3
2018-Feb-19 14:15N 38°33' E 015°38'0 0.2
2018-Feb-19 13:54N 38°33' E 015°38'0 0.2
2018-Feb-19 13:30N 38°33' E 015°38'0 0.1
2018-Feb-19 13:00N 38°33' E 015°38'0 0.0
2018-Feb-19 11:41N 38°33' E 015°38'0 0.3
2018-Feb-19 11:30N 38°33' E 015°38'0 0.3
2018-Feb-19 10:59N 38°32' E 015°38'0 0.8
2018-Feb-19 10:27N 38°32' E 015°38'3 6.3
2018-Feb-19 09:59N 38°31' E 015°35'0 0.8
2018-Feb-19 09:30N 38°31' E 015°34'0 0.8
2018-Feb-19 09:00N 38°31' E 015°34'0 0.8
2018-Feb-19 08:30N 38°31' E 015°34'0 0.6
2018-Feb-19 08:00N 38°32' E 015°33'1 0.5
2018-Feb-19 05:58N 38°33' E 015°34'0 0.8
2018-Feb-19 05:30N 38°33' E 015°35'1 0.8
2018-Feb-19 04:44N 38°33' E 015°35'1 0.6
2018-Feb-19 03:23N 38°33' E 015°36'1 0.4
2018-Feb-19 00:42N 38°32' E 015°38'0 0.3
2018-Feb-19 00:21N 38°32' E 015°38'0 0.2
2018-Feb-18 23:57N 38°32' E 015°38'0 0.3
2018-Feb-18 22:31N 38°32' E 015°38'0 0.3
2018-Feb-18 22:09N 38°32' E 015°38'0 0.3
2018-Feb-18 21:59N 38°32' E 015°38'0 0.3
2018-Feb-18 21:30N 38°32' E 015°38'0 0.1
2018-Feb-18 20:53N 38°31' E 015°38'0 0.1
2018-Feb-18 20:30N 38°31' E 015°38'0 0.1
2018-Feb-18 20:00N 38°31' E 015°38'0 0.1
2018-Feb-18 19:30N 38°31' E 015°38'0 0.2
2018-Feb-18 19:00N 38°31' E 015°38'0 0.3
2018-Feb-18 18:30N 38°31' E 015°38'0 0.3
2018-Feb-18 17:58N 38°32' E 015°38'0 0.3
2018-Feb-18 17:30N 38°32' E 015°38'0 0.4
2018-Feb-18 17:00N 38°32' E 015°39'0 0.5
2018-Feb-18 16:30N 38°32' E 015°39'0 0.6
2018-Feb-18 16:00N 38°32' E 015°39'0 0.5
2018-Feb-18 15:25N 38°32' E 015°39'0 0.4
2018-Feb-18 14:59N 38°32' E 015°40'0 0.2
2018-Feb-18 13:57N 38°33' E 015°40'0 0.1
2018-Feb-18 13:30N 38°33' E 015°40'0 0.2
2018-Feb-18 13:00N 38°33' E 015°40'0 0.4
2018-Feb-18 12:30N 38°33' E 015°39'1 0.3
2018-Feb-18 09:19N 38°32' E 015°39'0 0.2
2018-Feb-18 09:00N 38°32' E 015°39'0 0.2
2018-Feb-18 08:28N 38°31' E 015°39'0 0.3
2018-Feb-18 07:58N 38°31' E 015°39'0 0.4
2018-Feb-18 06:51N 38°31' E 015°39'1 2.0
2018-Feb-18 06:30N 38°31' E 015°40'5 9.7
2018-Feb-18 05:56N 38°35' E 015°34'1 1.2
2018-Feb-18 05:30N 38°34' E 015°35'0 0.9
2018-Feb-18 05:00N 38°34' E 015°35'0 0.8
2018-Feb-18 04:28N 38°34' E 015°36'0 0.8
2018-Feb-18 04:00N 38°34' E 015°36'0 0.8
2018-Feb-18 03:30N 38°34' E 015°37'0 0.8
2018-Feb-18 02:58N 38°35' E 015°37'0 0.8
2018-Feb-18 02:30N 38°35' E 015°38'1 0.8
2018-Feb-18 01:44N 38°35' E 015°39'0 1.0
2018-Feb-18 01:19N 38°35' E 015°39'0 1.0
2018-Feb-18 01:00N 38°35' E 015°40'0 1.0
2018-Feb-18 00:29N 38°35' E 015°40'1 1.0
2018-Feb-17 23:47N 38°35' E 015°41'0 1.0
2018-Feb-17 23:24N 38°35' E 015°41'0 0.9
2018-Feb-17 23:00N 38°36' E 015°42'0 0.8
2018-Feb-17 22:29N 38°36' E 015°42'0 0.7
2018-Feb-17 22:00N 38°35' E 015°43'0 0.8
2018-Feb-17 21:30N 38°35' E 015°43'0 0.8
2018-Feb-17 21:00N 38°35' E 015°44'0 0.7
2018-Feb-17 20:20N 38°34' E 015°44'0 0.5
2018-Feb-17 19:35N 38°34' E 015°43'0 0.5
2018-Feb-17 19:16N 38°34' E 015°43'0 0.5
2018-Feb-17 18:59N 38°34' E 015°43'0 0.5
2018-Feb-17 18:30N 38°34' E 015°43'0 0.4
2018-Feb-17 18:00N 38°34' E 015°43'0 0.4
2018-Feb-17 17:27N 38°34' E 015°42'0 0.3
2018-Feb-17 16:59N 38°33' E 015°42'0 0.3
2018-Feb-17 16:23N 38°34' E 015°42'0 0.4
2018-Feb-17 16:00N 38°34' E 015°42'0 0.7
2018-Feb-17 15:30N 38°33' E 015°42'1 1.1
2018-Feb-17 14:47N 38°33' E 015°41'1 1.2
2018-Feb-17 13:58N 38°32' E 015°40'1 1.7
2018-Feb-17 13:30N 38°32' E 015°39'611.3
2018-Feb-17 12:58N 38°36' E 015°34'510.9
2018-Feb-17 12:30N 38°40' E 015°30'0 0.2
2018-Feb-17 12:00N 38°40' E 015°30'0 0.2
2018-Feb-17 11:28N 38°40' E 015°30'0 0.2
2018-Feb-17 10:56N 38°39' E 015°30'0 0.3
2018-Feb-17 10:29N 38°39' E 015°30'0 0.4
2018-Feb-17 10:00N 38°39' E 015°30'0 0.5
2018-Feb-17 09:30N 38°39' E 015°30'0 0.5
2018-Feb-17 08:59N 38°39' E 015°31'0 0.5
2018-Feb-17 08:29N 38°39' E 015°31'0 0.5
2018-Feb-17 08:00N 38°39' E 015°31'0 0.4
2018-Feb-17 07:23N 38°38' E 015°31'0 0.3
2018-Feb-17 06:59N 38°38' E 015°32'0 0.2
2018-Feb-17 06:28N 38°38' E 015°32'0 0.3
2018-Feb-17 05:54N 38°38' E 015°32'0 0.2
2018-Feb-17 05:30N 38°38' E 015°32'0 0.2
2018-Feb-17 05:00N 38°38' E 015°32'0 0.3
2018-Feb-17 04:27N 38°38' E 015°32'0 0.4
2018-Feb-17 04:00N 38°38' E 015°32'0 0.5
2018-Feb-17 03:27N 38°38' E 015°33'0 0.5
2018-Feb-17 02:57N 38°38' E 015°33'0 0.5
2018-Feb-17 02:25N 38°37' E 015°33'0 0.4
2018-Feb-17 02:00N 38°37' E 015°33'0 0.4
2018-Feb-17 01:29N 38°37' E 015°34'0 0.4
2018-Feb-17 00:59N 38°37' E 015°34'0 0.4
2018-Feb-17 00:30N 38°37' E 015°34'0 0.5
2018-Feb-17 00:00N 38°36' E 015°34'0 0.6
2018-Feb-16 23:30N 38°36' E 015°34'0 0.7
2018-Feb-16 22:55N 38°36' E 015°34'0 0.7
2018-Feb-16 22:09N 38°36' E 015°35'0 0.6
2018-Feb-16 22:00N 38°36' E 015°35'0 0.1
2018-Feb-16 21:02N 38°35' E 015°35'0 0.1
2018-Feb-16 20:50N 38°35' E 015°35'0 0.1
2018-Feb-16 20:16N 38°35' E 015°35'0 0.2
2018-Feb-16 19:53N 38°36' E 015°35'1 0.3
2018-Feb-16 17:17N 38°36' E 015°35'0 0.4
2018-Feb-16 17:00N 38°36' E 015°35'0 0.4
2018-Feb-16 16:23N 38°37' E 015°34'0 0.4
2018-Feb-16 16:00N 38°37' E 015°34'0 0.4
2018-Feb-16 14:58N 38°37' E 015°34'0 0.4
2018-Feb-16 14:29N 38°37' E 015°34'0 0.7
2018-Feb-16 14:00N 38°38' E 015°34'4 8.0
2018-Feb-16 13:30N 38°34' E 015°37'612.5
2018-Feb-16 13:00N 38°29' E 015°41'5 9.7
2018-Feb-16 12:31N 38°25' E 015°45'1 1.3
2018-Feb-16 11:57N 38°26' E 015°44'1 1.3
2018-Feb-16 11:28N 38°26' E 015°44'1 1.2
2018-Feb-16 10:59N 38°27' E 015°43'1 1.2
2018-Feb-16 10:29N 38°27' E 015°43'1 1.2
2018-Feb-16 10:00N 38°28' E 015°42'1 1.1
2018-Feb-16 09:29N 38°28' E 015°42'1 1.0
2018-Feb-16 08:58N 38°28' E 015°41'0 0.8
2018-Feb-16 08:26N 38°29' E 015°41'0 0.8
2018-Feb-16 07:58N 38°29' E 015°41'0 0.9
2018-Feb-16 07:30N 38°29' E 015°40'0 1.0
2018-Feb-16 07:00N 38°30' E 015°40'1 0.9
2018-Feb-16 06:27N 38°30' E 015°39'0 0.9
2018-Feb-16 05:59N 38°30' E 015°39'0 1.0
2018-Feb-16 05:30N 38°31' E 015°39'0 1.0
2018-Feb-16 05:00N 38°31' E 015°38'0 0.9
2018-Feb-16 04:30N 38°31' E 015°38'0 0.8
2018-Feb-16 04:00N 38°31' E 015°37'0 0.9
2018-Feb-16 03:27N 38°32' E 015°37'0 0.9
2018-Feb-16 03:00N 38°32' E 015°37'0 1.0
2018-Feb-16 02:29N 38°33' E 015°36'0 0.9
2018-Feb-16 01:58N 38°33' E 015°36'0 0.9
2018-Feb-16 01:30N 38°33' E 015°36'0 0.9
2018-Feb-16 00:59N 38°34' E 015°35'0 1.0
2018-Feb-16 00:29N 38°34' E 015°35'0 1.0
2018-Feb-16 00:00N 38°35' E 015°35'1 1.2
2018-Feb-15 23:30N 38°35' E 015°35'0 0.9
2018-Feb-15 23:00N 38°36' E 015°35'4 7.2
2018-Feb-15 22:29N 38°32' E 015°36'4 8.7
2018-Feb-15 22:00N 38°28' E 015°37'1 1.2
2018-Feb-15 21:30N 38°29' E 015°37'1 1.1
2018-Feb-15 21:00N 38°29' E 015°37'1 1.2
2018-Feb-15 20:30N 38°30' E 015°36'1 1.3
2018-Feb-15 20:00N 38°30' E 015°36'1 1.4
2018-Feb-15 19:30N 38°31' E 015°36'1 1.5
2018-Feb-15 19:00N 38°32' E 015°35'1 1.4
2018-Feb-15 18:30N 38°32' E 015°35'1 1.5
2018-Feb-15 18:00N 38°33' E 015°34'1 1.6
2018-Feb-15 17:30N 38°34' E 015°34'1 1.6
2018-Feb-15 16:58N 38°34' E 015°33'1 1.6
2018-Feb-15 16:30N 38°35' E 015°33'4 8.6
2018-Feb-15 16:00N 38°31' E 015°35'713.5
2018-Feb-15 15:30N 38°25' E 015°39'713.7
2018-Feb-15 15:00N 38°19' E 015°43'612.6
2018-Feb-15 14:30N 38°14' E 015°38'712.8
2018-Feb-15 13:58N 38°07' E 015°36'612.7
2018-Feb-15 13:30N 38°02' E 015°35'1213.0
2018-Feb-15 12:36N 37°50' E 015°35'213.1
2018-Feb-15 12:28N 37°48' E 015°35'612.9
2018-Feb-15 12:00N 37°42' E 015°36'713.2
2018-Feb-15 11:28N 37°35' E 015°37'613.3
2018-Feb-15 11:00N 37°29' E 015°37'94 8.9
2018-Feb-15 00:30N 36°02' E 014°53'612.0
2018-Feb-15 00:00N 35°57' E 014°50'612.2
2018-Feb-14 23:30N 35°51' E 014°48'613.1
2018-Feb-14 23:00N 35°49' E 014°40'3 6.1
2018-Feb-14 22:26N 35°50' E 014°36'0 0.1
2018-Feb-14 21:56N 35°50' E 014°36'0 0.1
2018-Feb-14 21:26N 35°50' E 014°36'0 0.1
2018-Feb-14 20:56N 35°50' E 014°36'0 0.0
2018-Feb-14 20:26N 35°50' E 014°36'0 0.0
2018-Feb-14 19:56N 35°50' E 014°36'0 0.0
2018-Feb-14 19:26N 35°50' E 014°36'0 0.0
2018-Feb-14 18:56N 35°50' E 014°36'0 0.1
2018-Feb-14 18:26N 35°50' E 014°36'1 1.3
2018-Feb-14 18:00N 35°50' E 014°37'1 2.6
2018-Feb-14 17:30N 35°49' E 014°38'2 3.3
2018-Feb-14 16:59N 35°49' E 014°40'4 9.1
2018-Feb-14 16:30N 35°49' E 014°45'712.2
2018-Feb-14 15:55N 35°51' E 014°53'2 3.6
2018-Feb-14 15:29N 35°52' E 014°55'0 0.2
2018-Feb-14 14:56N 35°53' E 014°55'0 0.1
2018-Feb-14 14:13N 35°52' E 014°55'0 0.4
2018-Feb-14 13:57N 35°53' E 014°55'0 0.0
2018-Feb-14 13:29N 35°53' E 014°55'0 0.0
2018-Feb-14 13:00N 35°53' E 014°55'0 0.1
2018-Feb-14 12:27N 35°53' E 014°55'0 0.0
2018-Feb-14 12:00N 35°53' E 014°55'0 0.0
2018-Feb-14 11:25N 35°53' E 014°55'0 0.3
2018-Feb-14 10:57N 35°52' E 014°55'7 0.3
2018-Feb-13 08:24N 35°45' E 014°55'4 6.8
2018-Feb-13 07:47N 35°42' E 014°52'19 2.5
2018-Feb-13 00:13N 35°42' E 014°28'414.4
2018-Feb-12 23:59N 35°44' E 014°25'714.0
2018-Feb-12 23:30N 35°47' E 014°18'714.2
2018-Feb-12 23:00N 35°51' E 014°10'714.4
2018-Feb-12 22:30N 35°55' E 014°03'714.8
2018-Feb-12 22:00N 35°59' E 013°55'714.9
2018-Feb-12 21:30N 36°03' E 013°47'  
Track history (hours):
 
Tides and Currents Weather Stations Pressure Air Temp Water Temp Dewpoint Dewpoint Depression Visibility Wind Speed Wind Dir Waves Ship Positions

Sonderborg

Last reported at 2018-Feb-22 07:52 UTC. Time now 2018-Feb-23 22:45 UTC.
Position N 38°20' E 012°32'.

Length 148 m; draft 8.4 m.

Type: Cargo ship. MMSI: 304044000.

Date/timePositionNaut miles runAvg speedWind from/ knotsBaromVisibWave heightAir tempDewpointWater temp
2018-Feb-22 07:52N 38°20' E 012°32'1215.7
2018-Feb-22 07:07N 38°23' E 012°47'216.0
2018-Feb-22 07:01N 38°23' E 012°49'815.8
2018-Feb-22 06:31N 38°25' E 012°59'816.5
2018-Feb-22 06:00N 38°27' E 013°09'816.4
2018-Feb-22 05:30N 38°29' E 013°20'816.1
2018-Feb-22 05:01N 38°29' E 013°30'815.7
2018-Feb-22 04:31N 38°28' E 013°40'816.0
2018-Feb-22 04:00N 38°27' E 013°50'816.3
2018-Feb-22 03:30N 38°26' E 014°00'816.2
2018-Feb-22 03:00N 38°24' E 014°10'2316.2
2018-Feb-22 01:37N 38°22' E 014°39'316.2
2018-Feb-22 01:26N 38°21' E 014°43'716.3
2018-Feb-22 01:00N 38°20' E 014°51'815.9
2018-Feb-22 00:31N 38°20' E 015°02'816.0
2018-Feb-22 00:00N 38°23' E 015°11'815.6
2018-Feb-21 23:31N 38°24' E 015°21'816.0
2018-Feb-21 23:00N 38°26' E 015°31'815.9
2018-Feb-21 22:30N 38°27' E 015°41'816.0
2018-Feb-21 22:01N 38°27' E 015°51'3 4.6
2018-Feb-21 21:28N 38°27' E 015°54'0 0.0
2018-Feb-21 12:58N 38°27' E 015°54'0 0.0
2018-Feb-21 11:04N 38°27' E 015°54'0 0.0
2018-Feb-21 07:10N 38°27' E 015°54'0 0.0
2018-Feb-21 06:46N 38°27' E 015°54'0 0.0
2018-Feb-21 06:22N 38°27' E 015°54'0 0.0
2018-Feb-21 05:04N 38°27' E 015°54'0 0.0
2018-Feb-21 04:52N 38°27' E 015°54'0 0.0
2018-Feb-21 04:22N 38°27' E 015°54'0 0.0
2018-Feb-21 03:04N 38°27' E 015°54'0 0.1
2018-Feb-21 02:58N 38°27' E 015°54'0 0.0
2018-Feb-21 02:28N 38°27' E 015°54'0 0.0
2018-Feb-21 01:40N 38°27' E 015°54'0 0.0
2018-Feb-21 01:28N 38°27' E 015°54'0 0.0
2018-Feb-21 00:16N 38°27' E 015°54'0 0.0
2018-Feb-20 21:52N 38°27' E 015°54'0 0.0
2018-Feb-20 21:22N 38°27' E 015°54'0 0.0
2018-Feb-20 20:58N 38°27' E 015°54'0 0.0
2018-Feb-20 20:28N 38°27' E 015°54'0 0.0
2018-Feb-20 19:58N 38°27' E 015°54'0 0.0
2018-Feb-20 08:52N 38°27' E 015°54'6 4.9
2018-Feb-20 07:45N 38°28' E 015°47'2 5.1
2018-Feb-20 07:21N 38°30' E 015°46'3 9.2
2018-Feb-20 06:59N 38°33' E 015°44'2 1.4
2018-Feb-20 05:47N 38°34' E 015°43'0 0.2
2018-Feb-20 05:30N 38°34' E 015°43'0 0.2
2018-Feb-20 04:59N 38°34' E 015°43'0 0.2
2018-Feb-20 03:55N 38°34' E 015°43'0 0.5
2018-Feb-20 03:26N 38°34' E 015°42'1 0.4
2018-Feb-20 00:27N 38°35' E 015°41'0 0.5
2018-Feb-20 00:00N 38°35' E 015°41'1 0.5
2018-Feb-19 23:00N 38°36' E 015°40'0 0.5
2018-Feb-19 22:05N 38°36' E 015°40'0 0.4
2018-Feb-19 21:46N 38°36' E 015°39'0 0.5
2018-Feb-19 21:29N 38°36' E 015°39'0 0.6
2018-Feb-19 20:52N 38°35' E 015°39'0 0.7
2018-Feb-19 20:21N 38°35' E 015°39'0 0.7
2018-Feb-19 20:00N 38°35' E 015°39'0 0.5
2018-Feb-19 19:29N 38°35' E 015°38'0 0.4
2018-Feb-19 18:58N 38°34' E 015°38'0 0.3
2018-Feb-19 18:29N 38°34' E 015°38'0 0.5
2018-Feb-19 18:00N 38°34' E 015°38'0 0.4
2018-Feb-19 17:27N 38°34' E 015°38'0 0.4
2018-Feb-19 17:00N 38°34' E 015°38'0 0.3
2018-Feb-19 16:30N 38°34' E 015°38'0 0.3
2018-Feb-19 16:00N 38°33' E 015°38'0 0.4
2018-Feb-19 15:30N 38°33' E 015°38'0 0.3
2018-Feb-19 14:15N 38°33' E 015°38'0 0.2
2018-Feb-19 13:54N 38°33' E 015°38'0 0.2
2018-Feb-19 13:30N 38°33' E 015°38'0 0.1
2018-Feb-19 13:00N 38°33' E 015°38'0 0.0
2018-Feb-19 11:41N 38°33' E 015°38'0 0.3
2018-Feb-19 11:30N 38°33' E 015°38'0 0.3
2018-Feb-19 10:59N 38°32' E 015°38'0 0.8
2018-Feb-19 10:27N 38°32' E 015°38'3 6.3
2018-Feb-19 09:59N 38°31' E 015°35'0 0.8
2018-Feb-19 09:30N 38°31' E 015°34'0 0.8
2018-Feb-19 09:00N 38°31' E 015°34'0 0.8
2018-Feb-19 08:30N 38°31' E 015°34'0 0.6
2018-Feb-19 08:00N 38°32' E 015°33'1 0.5
2018-Feb-19 05:58N 38°33' E 015°34'0 0.8
2018-Feb-19 05:30N 38°33' E 015°35'1 0.8
2018-Feb-19 04:44N 38°33' E 015°35'1 0.6
2018-Feb-19 03:23N 38°33' E 015°36'1 0.4
2018-Feb-19 00:42N 38°32' E 015°38'0 0.3
2018-Feb-19 00:21N 38°32' E 015°38'0 0.2
2018-Feb-18 23:57N 38°32' E 015°38'0 0.3
2018-Feb-18 22:31N 38°32' E 015°38'0 0.3
2018-Feb-18 22:09N 38°32' E 015°38'0 0.3
2018-Feb-18 21:59N 38°32' E 015°38'0 0.3
2018-Feb-18 21:30N 38°32' E 015°38'0 0.1
2018-Feb-18 20:53N 38°31' E 015°38'0 0.1
2018-Feb-18 20:30N 38°31' E 015°38'0 0.1
2018-Feb-18 20:00N 38°31' E 015°38'0 0.1
2018-Feb-18 19:30N 38°31' E 015°38'0 0.2
2018-Feb-18 19:00N 38°31' E 015°38'0 0.3
2018-Feb-18 18:30N 38°31' E 015°38'0 0.3
2018-Feb-18 17:58N 38°32' E 015°38'0 0.3
2018-Feb-18 17:30N 38°32' E 015°38'0 0.4
2018-Feb-18 17:00N 38°32' E 015°39'0 0.5
2018-Feb-18 16:30N 38°32' E 015°39'0 0.6
2018-Feb-18 16:00N 38°32' E 015°39'0 0.5
2018-Feb-18 15:25N 38°32' E 015°39'0 0.4
2018-Feb-18 14:59N 38°32' E 015°40'0 0.2
2018-Feb-18 13:57N 38°33' E 015°40'0 0.1
2018-Feb-18 13:30N 38°33' E 015°40'0 0.2
2018-Feb-18 13:00N 38°33' E 015°40'0 0.4
2018-Feb-18 12:30N 38°33' E 015°39'1 0.3
2018-Feb-18 09:19N 38°32' E 015°39'0 0.2
2018-Feb-18 09:00N 38°32' E 015°39'0 0.2
2018-Feb-18 08:28N 38°31' E 015°39'0 0.3
2018-Feb-18 07:58N 38°31' E 015°39'0 0.4
2018-Feb-18 06:51N 38°31' E 015°39'1 2.0
2018-Feb-18 06:30N 38°31' E 015°40'5 9.7
2018-Feb-18 05:56N 38°35' E 015°34'1 1.2
2018-Feb-18 05:30N 38°34' E 015°35'0 0.9
2018-Feb-18 05:00N 38°34' E 015°35'0 0.8
2018-Feb-18 04:28N 38°34' E 015°36'0 0.8
2018-Feb-18 04:00N 38°34' E 015°36'0 0.8
2018-Feb-18 03:30N 38°34' E 015°37'0 0.8
2018-Feb-18 02:58N 38°35' E 015°37'0 0.8
2018-Feb-18 02:30N 38°35' E 015°38'1 0.8
2018-Feb-18 01:44N 38°35' E 015°39'0 1.0
2018-Feb-18 01:19N 38°35' E 015°39'0 1.0
2018-Feb-18 01:00N 38°35' E 015°40'0 1.0
2018-Feb-18 00:29N 38°35' E 015°40'1 1.0
2018-Feb-17 23:47N 38°35' E 015°41'0 1.0
2018-Feb-17 23:24N 38°35' E 015°41'0 0.9
2018-Feb-17 23:00N 38°36' E 015°42'0 0.8
2018-Feb-17 22:29N 38°36' E 015°42'0 0.7
2018-Feb-17 22:00N 38°35' E 015°43'0 0.8
2018-Feb-17 21:30N 38°35' E 015°43'0 0.8
2018-Feb-17 21:00N 38°35' E 015°44'0 0.7
2018-Feb-17 20:20N 38°34' E 015°44'0 0.5
2018-Feb-17 19:35N 38°34' E 015°43'0 0.5
2018-Feb-17 19:16N 38°34' E 015°43'0 0.5
2018-Feb-17 18:59N 38°34' E 015°43'0 0.5
2018-Feb-17 18:30N 38°34' E 015°43'0 0.4
2018-Feb-17 18:00N 38°34' E 015°43'0 0.4
2018-Feb-17 17:27N 38°34' E 015°42'0 0.3
2018-Feb-17 16:59N 38°33' E 015°42'0 0.3
2018-Feb-17 16:23N 38°34' E 015°42'0 0.4
2018-Feb-17 16:00N 38°34' E 015°42'0 0.7
2018-Feb-17 15:30N 38°33' E 015°42'1 1.1
2018-Feb-17 14:47N 38°33' E 015°41'1 1.2
2018-Feb-17 13:58N 38°32' E 015°40'1 1.7
2018-Feb-17 13:30N 38°32' E 015°39'611.3
2018-Feb-17 12:58N 38°36' E 015°34'510.9
2018-Feb-17 12:30N 38°40' E 015°30'0 0.2
2018-Feb-17 12:00N 38°40' E 015°30'0 0.2
2018-Feb-17 11:28N 38°40' E 015°30'0 0.2
2018-Feb-17 10:56N 38°39' E 015°30'0 0.3
2018-Feb-17 10:29N 38°39' E 015°30'0 0.4
2018-Feb-17 10:00N 38°39' E 015°30'0 0.5
2018-Feb-17 09:30N 38°39' E 015°30'0 0.5
2018-Feb-17 08:59N 38°39' E 015°31'0 0.5
2018-Feb-17 08:29N 38°39' E 015°31'0 0.5
2018-Feb-17 08:00N 38°39' E 015°31'0 0.4
2018-Feb-17 07:23N 38°38' E 015°31'0 0.3
2018-Feb-17 06:59N 38°38' E 015°32'0 0.2
2018-Feb-17 06:28N 38°38' E 015°32'0 0.3
2018-Feb-17 05:54N 38°38' E 015°32'0 0.2
2018-Feb-17 05:30N 38°38' E 015°32'0 0.2
2018-Feb-17 05:00N 38°38' E 015°32'0 0.3
2018-Feb-17 04:27N 38°38' E 015°32'0 0.4
2018-Feb-17 04:00N 38°38' E 015°32'0 0.5
2018-Feb-17 03:27N 38°38' E 015°33'0 0.5
2018-Feb-17 02:57N 38°38' E 015°33'0 0.5
2018-Feb-17 02:25N 38°37' E 015°33'0 0.4
2018-Feb-17 02:00N 38°37' E 015°33'0 0.4
2018-Feb-17 01:29N 38°37' E 015°34'0 0.4
2018-Feb-17 00:59N 38°37' E 015°34'0 0.4
2018-Feb-17 00:30N 38°37' E 015°34'0 0.5
2018-Feb-17 00:00N 38°36' E 015°34'0 0.6
2018-Feb-16 23:30N 38°36' E 015°34'0 0.7
2018-Feb-16 22:55N 38°36' E 015°34'0 0.7
2018-Feb-16 22:09N 38°36' E 015°35'0 0.6
2018-Feb-16 22:00N 38°36' E 015°35'0 0.1
2018-Feb-16 21:02N 38°35' E 015°35'0 0.1
2018-Feb-16 20:50N 38°35' E 015°35'0 0.1
2018-Feb-16 20:16N 38°35' E 015°35'0 0.2
2018-Feb-16 19:53N 38°36' E 015°35'1 0.3
2018-Feb-16 17:17N 38°36' E 015°35'0 0.4
2018-Feb-16 17:00N 38°36' E 015°35'0 0.4
2018-Feb-16 16:23N 38°37' E 015°34'0 0.4
2018-Feb-16 16:00N 38°37' E 015°34'0 0.4
2018-Feb-16 14:58N 38°37' E 015°34'0 0.4
2018-Feb-16 14:29N 38°37' E 015°34'0 0.7
2018-Feb-16 14:00N 38°38' E 015°34'4 8.0
2018-Feb-16 13:30N 38°34' E 015°37'612.5
2018-Feb-16 13:00N 38°29' E 015°41'5 9.7
2018-Feb-16 12:31N 38°25' E 015°45'1 1.3
2018-Feb-16 11:57N 38°26' E 015°44'1 1.3
2018-Feb-16 11:28N 38°26' E 015°44'1 1.2
2018-Feb-16 10:59N 38°27' E 015°43'1 1.2
2018-Feb-16 10:29N 38°27' E 015°43'1 1.2
2018-Feb-16 10:00N 38°28' E 015°42'1 1.1
2018-Feb-16 09:29N 38°28' E 015°42'1 1.0
2018-Feb-16 08:58N 38°28' E 015°41'0 0.8
2018-Feb-16 08:26N 38°29' E 015°41'0 0.8
2018-Feb-16 07:58N 38°29' E 015°41'0 0.9
2018-Feb-16 07:30N 38°29' E 015°40'0 1.0
2018-Feb-16 07:00N 38°30' E 015°40'1 0.9
2018-Feb-16 06:27N 38°30' E 015°39'0 0.9
2018-Feb-16 05:59N 38°30' E 015°39'0 1.0
2018-Feb-16 05:30N 38°31' E 015°39'0 1.0
2018-Feb-16 05:00N 38°31' E 015°38'0 0.9
2018-Feb-16 04:30N 38°31' E 015°38'0 0.8
2018-Feb-16 04:00N 38°31' E 015°37'0 0.9
2018-Feb-16 03:27N 38°32' E 015°37'0 0.9
2018-Feb-16 03:00N 38°32' E 015°37'0 1.0
2018-Feb-16 02:29N 38°33' E 015°36'0 0.9
2018-Feb-16 01:58N 38°33' E 015°36'0 0.9
2018-Feb-16 01:30N 38°33' E 015°36'0 0.9
2018-Feb-16 00:59N 38°34' E 015°35'0 1.0
2018-Feb-16 00:29N 38°34' E 015°35'0 1.0
2018-Feb-16 00:00N 38°35' E 015°35'1 1.2
2018-Feb-15 23:30N 38°35' E 015°35'0 0.9
2018-Feb-15 23:00N 38°36' E 015°35'4 7.2
2018-Feb-15 22:29N 38°32' E 015°36'4 8.7
2018-Feb-15 22:00N 38°28' E 015°37'1 1.2
2018-Feb-15 21:30N 38°29' E 015°37'1 1.1
2018-Feb-15 21:00N 38°29' E 015°37'1 1.2
2018-Feb-15 20:30N 38°30' E 015°36'1 1.3
2018-Feb-15 20:00N 38°30' E 015°36'1 1.4
2018-Feb-15 19:30N 38°31' E 015°36'1 1.5
2018-Feb-15 19:00N 38°32' E 015°35'1 1.4
2018-Feb-15 18:30N 38°32' E 015°35'1 1.5
2018-Feb-15 18:00N 38°33' E 015°34'1 1.6
2018-Feb-15 17:30N 38°34' E 015°34'1 1.6
2018-Feb-15 16:58N 38°34' E 015°33'1 1.6
2018-Feb-15 16:30N 38°35' E 015°33'4 8.6
2018-Feb-15 16:00N 38°31' E 015°35'713.5
2018-Feb-15 15:30N 38°25' E 015°39'713.7
2018-Feb-15 15:00N 38°19' E 015°43'612.6
2018-Feb-15 14:30N 38°14' E 015°38'712.8
2018-Feb-15 13:58N 38°07' E 015°36'612.7
2018-Feb-15 13:30N 38°02' E 015°35'1213.0
2018-Feb-15 12:36N 37°50' E 015°35'213.1
2018-Feb-15 12:28N 37°48' E 015°35'612.9
2018-Feb-15 12:00N 37°42' E 015°36'713.2
2018-Feb-15 11:28N 37°35' E 015°37'613.3
2018-Feb-15 11:00N 37°29' E 015°37'94 8.9
2018-Feb-15 00:30N 36°02' E 014°53'612.0
2018-Feb-15 00:00N 35°57' E 014°50'612.2
2018-Feb-14 23:30N 35°51' E 014°48'613.1
2018-Feb-14 23:00N 35°49' E 014°40'3 6.1
2018-Feb-14 22:26N 35°50' E 014°36'0 0.1
2018-Feb-14 21:56N 35°50' E 014°36'0 0.1
2018-Feb-14 21:26N 35°50' E 014°36'0 0.1
2018-Feb-14 20:56N 35°50' E 014°36'0 0.0
2018-Feb-14 20:26N 35°50' E 014°36'0 0.0
2018-Feb-14 19:56N 35°50' E 014°36'0 0.0
2018-Feb-14 19:26N 35°50' E 014°36'0 0.0
2018-Feb-14 18:56N 35°50' E 014°36'0 0.1
2018-Feb-14 18:26N 35°50' E 014°36'1 1.3
2018-Feb-14 18:00N 35°50' E 014°37'1 2.6
2018-Feb-14 17:30N 35°49' E 014°38'2 3.3
2018-Feb-14 16:59N 35°49' E 014°40'4 9.1
2018-Feb-14 16:30N 35°49' E 014°45'712.2
2018-Feb-14 15:55N 35°51' E 014°53'2 3.6
2018-Feb-14 15:29N 35°52' E 014°55'0 0.2
2018-Feb-14 14:56N 35°53' E 014°55'0 0.1
2018-Feb-14 14:13N 35°52' E 014°55'0 0.4
2018-Feb-14 13:57N 35°53' E 014°55'0 0.0
2018-Feb-14 13:29N 35°53' E 014°55'0 0.0
2018-Feb-14 13:00N 35°53' E 014°55'0 0.1
2018-Feb-14 12:27N 35°53' E 014°55'0 0.0
2018-Feb-14 12:00N 35°53' E 014°55'0 0.0
2018-Feb-14 11:25N 35°53' E 014°55'0 0.3
2018-Feb-14 10:57N 35°52' E 014°55'7 0.3
2018-Feb-13 08:24N 35°45' E 014°55'4 6.8
2018-Feb-13 07:47N 35°42' E 014°52'19 2.5
2018-Feb-13 00:13N 35°42' E 014°28'414.4
2018-Feb-12 23:59N 35°44' E 014°25'714.0
2018-Feb-12 23:30N 35°47' E 014°18'714.2
2018-Feb-12 23:00N 35°51' E 014°10'714.4
2018-Feb-12 22:30N 35°55' E 014°03'714.8
2018-Feb-12 22:00N 35°59' E 013°55'714.9
2018-Feb-12 21:30N 36°03' E 013°47'  

Dump ship's entire track history